Webcam Richtung Westen

Webcam27

Webcam Richtung Norden

Webcam36

Webcam Richtung Osten

Webcam09

Wetter(Würzburg):
290400Z AUTO 30011G16KT 8000 RA FEW028 BKN044 OVC054 10/08 Q1014
		
Thu 29.10.2020, 04:00 UTC

Sichtweite bis zu 8000 m
Regen
Wind aus 300° mit 11kt, in Böen bis zu 16kt
vereinzelte Wolken (1-2 Achtel) bei 2800 Fuß
unterbrochene Wolkendecke (5-7 Achtel) bei 4400 Fuß
bedeckter Himmel (8 Achtel) bei 5400 Fuß
Temperatur: 10 °C
Taupunkt: 8 °C
QNH: 1014 hPa
                         Heute        Morgen
                         29.10        30.10
--------------------------------------------
Beginn der Dämmerung     05:31        05:33
Sonnenaufgang            06:04        06:06
Sonnenuntergang          16:03        16:01
Ende der Dämmerung       16:37        16:35

Alle Zeiten in UTC